Time;durP1;ratioP1;P1;durP2;ratioP2;P2;SDS_P1;SDS_P2;PMS_P1;PMS_P2;Temp;Humidity;BMP_temperature;BMP_pressure;BME280_temperature;BME280_humidity;BME280_pressure;Samples;Min_cycle;Max_cycle;Signal;HPM_P1;HPM_P2
2023/05/11 00:01:07;;;;;;;10.38;1.50;;;;;;;;;;4994112;28;20033;-66
2023/05/11 00:03:33;;;;;;;3.92;1.48;;;;;;;;;;4994305;28;20026;-66
2023/05/11 00:06:00;;;;;;;6.70;1.50;;;;;;;;;;4994026;28;20046;-66
2023/05/11 00:08:26;;;;;;;5.93;1.65;;;;;;;;;;4993855;28;20021;-67
2023/05/11 00:10:53;;;;;;;9.32;2.13;;;;;;;;;;4993996;28;20037;-66
2023/05/11 00:13:19;;;;;;;7.30;1.90;;;;;;;;;;4993852;28;20502;-66
2023/05/11 00:15:46;;;;;;;8.52;1.33;;;;;;;;;;4994013;28;20030;-67
2023/05/11 00:18:12;;;;;;;5.90;1.52;;;;;;;;;;4993803;28;20033;-66
2023/05/11 00:20:38;;;;;;;7.60;1.50;;;;;;;;;;4993872;28;20022;-66
2023/05/11 00:23:05;;;;;;;10.52;1.50;;;;;;;;;;4993365;28;20472;-66
2023/05/11 00:25:31;;;;;;;4.30;1.40;;;;;;;;;;4993589;28;20468;-66
2023/05/11 00:27:57;;;;;;;11.50;1.58;;;;;;;;;;4994013;28;20031;-66
2023/05/11 00:30:24;;;;;;;5.35;1.40;;;;;;;;;;4993690;28;20038;-66
2023/05/11 00:32:50;;;;;;;5.30;1.30;;;;;;;;;;4992687;28;20044;-66
2023/05/11 00:35:17;;;;;;;8.05;1.30;;;;;;;;;;4993503;28;20026;-67
2023/05/11 00:37:43;;;;;;;6.95;1.60;;;;;;;;;;4992054;28;20027;-67
2023/05/11 00:40:10;;;;;;;6.97;1.45;;;;;;;;;;4993460;28;20097;-66
2023/05/11 00:42:36;;;;;;;5.72;1.33;;;;;;;;;;4993511;28;20023;-66
2023/05/11 00:45:03;;;;;;;8.25;1.40;;;;;;;;;;4993392;28;20045;-66
2023/05/11 00:47:29;;;;;;;4.65;1.23;;;;;;;;;;4993175;28;20088;-66
2023/05/11 00:49:56;;;;;;;4.78;1.00;;;;;;;;;;4993171;28;20034;-66
2023/05/11 00:52:22;;;;;;;6.28;1.05;;;;;;;;;;4993063;28;20037;-66
2023/05/11 00:54:48;;;;;;;5.60;1.17;;;;;;;;;;4993232;28;20030;-66
2023/05/11 00:57:15;;;;;;;3.88;0.90;;;;;;;;;;4993196;28;20080;-66
2023/05/11 00:59:41;;;;;;;3.53;0.93;;;;;;;;;;4992967;28;20430;-66
2023/05/11 01:02:07;;;;;;;4.70;1.20;;;;;;;;;;4993027;28;20029;-66
2023/05/11 01:04:34;;;;;;;4.45;1.65;;;;;;;;;;4993052;28;20027;-66
2023/05/11 01:07:11;;;;;;;3.88;0.90;;;;;;;;;;4992787;28;20060;-67
2023/05/11 01:09:38;;;;;;;4.00;1.20;;;;;;;;;;4992688;28;20048;-66
2023/05/11 01:12:13;;;;;;;4.65;1.10;;;;;;;;;;4993098;28;20037;-66
2023/05/11 01:14:53;;;;;;;5.22;1.33;;;;;;;;;;4992803;28;20022;-66
2023/05/11 01:17:23;;;;;;;4.72;1.02;;;;;;;;;;4992862;28;20372;-67
2023/05/11 01:19:58;;;;;;;2.05;1.02;;;;;;;;;;4991636;28;20030;-66
2023/05/11 01:22:30;;;;;;;9.68;1.15;;;;;;;;;;4992639;28;20395;-66
2023/05/11 01:25:06;;;;;;;2.45;0.80;;;;;;;;;;4993130;28;20014;-66
2023/05/11 01:27:33;;;;;;;4.32;0.80;;;;;;;;;;4992797;28;20029;-66
2023/05/11 01:30:14;;;;;;;2.28;1.10;;;;;;;;;;4992603;28;20435;-66
2023/05/11 01:32:42;;;;;;;4.95;1.05;;;;;;;;;;4992675;28;20047;-66
2023/05/11 01:35:19;;;;;;;3.35;1.17;;;;;;;;;;4993013;28;20018;-67
2023/05/11 01:37:47;;;;;;;5.78;0.88;;;;;;;;;;4992886;28;20035;-66
2023/05/11 01:40:15;;;;;;;8.77;1.35;;;;;;;;;;4993070;28;20030;-66
2023/05/11 01:42:45;;;;;;;10.32;1.92;;;;;;;;;;4992635;28;20025;-66
2023/05/11 01:45:12;;;;;;;9.13;1.63;;;;;;;;;;4992581;28;20476;-66
2023/05/11 01:47:40;;;;;;;9.80;1.70;;;;;;;;;;4992626;28;20026;-66
2023/05/11 01:50:07;;;;;;;12.38;2.10;;;;;;;;;;4992484;28;20033;-66
2023/05/11 01:52:35;;;;;;;10.00;2.25;;;;;;;;;;5024476;28;20038;-66
2023/05/11 01:55:03;;;;;;;13.13;2.40;;;;;;;;;;4992686;28;20022;-66
2023/05/11 01:57:30;;;;;;;14.10;1.98;;;;;;;;;;4992325;28;20030;-67
2023/05/11 01:59:57;;;;;;;9.88;2.45;;;;;;;;;;4992831;28;20026;-66
2023/05/11 02:02:24;;;;;;;7.53;1.83;;;;;;;;;;4992659;28;20018;-67
2023/05/11 02:04:51;;;;;;;10.55;2.25;;;;;;;;;;4992270;28;20029;-66
2023/05/11 02:07:18;;;;;;;19.95;2.50;;;;;;;;;;4992661;28;20041;-66
2023/05/11 02:09:45;;;;;;;10.52;2.60;;;;;;;;;;4992616;28;20053;-66
2023/05/11 02:12:12;;;;;;;13.10;2.45;;;;;;;;;;5024153;28;20030;-66
2023/05/11 02:14:39;;;;;;;15.00;2.00;;;;;;;;;;4992480;28;20037;-66
2023/05/11 02:17:06;;;;;;;13.93;2.15;;;;;;;;;;4992256;28;20026;-66
2023/05/11 02:19:34;;;;;;;11.65;2.80;;;;;;;;;;4991947;28;20034;-66
2023/05/11 02:22:00;;;;;;;13.25;2.75;;;;;;;;;;4994196;28;20023;-66
2023/05/11 02:24:27;;;;;;;12.20;1.90;;;;;;;;;;4994644;28;20034;-66
2023/05/11 02:26:54;;;;;;;10.32;2.53;;;;;;;;;;4995720;28;20044;-66
2023/05/11 02:29:20;;;;;;;12.10;2.30;;;;;;;;;;4995824;28;20032;-66
2023/05/11 02:31:48;;;;;;;11.15;2.63;;;;;;;;;;4995700;28;20164;-66
2023/05/11 02:34:22;;;;;;;12.15;2.28;;;;;;;;;;4995576;28;20026;-66
2023/05/11 02:36:49;;;;;;;10.55;2.10;;;;;;;;;;4995617;28;20025;-66
2023/05/11 02:39:20;;;;;;;8.43;2.08;;;;;;;;;;4995800;28;20472;-67
2023/05/11 02:41:49;;;;;;;10.25;2.42;;;;;;;;;;4995686;28;20585;-66
2023/05/11 02:44:17;;;;;;;14.48;2.50;;;;;;;;;;4995518;28;20037;-66
2023/05/11 02:46:45;;;;;;;12.65;3.03;;;;;;;;;;4995570;28;20483;-66
2023/05/11 02:49:13;;;;;;;12.43;2.50;;;;;;;;;;4995210;28;20034;-66
2023/05/11 02:51:41;;;;;;;13.98;2.30;;;;;;;;;;4995452;28;20030;-66
2023/05/11 02:54:12;;;;;;;13.20;2.22;;;;;;;;;;4995360;28;20022;-66
2023/05/11 02:56:38;;;;;;;8.13;1.88;;;;;;;;;;4995345;28;20034;-66
2023/05/11 02:59:05;;;;;;;11.35;2.25;;;;;;;;;;4995355;28;20076;-66
2023/05/11 03:01:31;;;;;;;10.48;2.10;;;;;;;;;;4995237;28;20026;-66
2023/05/11 03:03:57;;;;;;;11.65;2.22;;;;;;;;;;4995170;28;20032;-66
2023/05/11 03:06:24;;;;;;;8.55;1.83;;;;;;;;;;4995256;28;20040;-66
2023/05/11 03:08:50;;;;;;;12.02;2.60;;;;;;;;;;4995181;28;20027;-66
2023/05/11 03:11:17;;;;;;;9.75;2.00;;;;;;;;;;4995404;28;20026;-66
2023/05/11 03:13:44;;;;;;;10.07;2.20;;;;;;;;;;4995028;28;20407;-66
2023/05/11 03:16:11;;;;;;;7.38;2.08;;;;;;;;;;4994988;28;20022;-66
2023/05/11 03:18:38;;;;;;;15.63;2.58;;;;;;;;;;4994785;28;20033;-66
2023/05/11 03:21:05;;;;;;;6.97;1.83;;;;;;;;;;4995353;28;20211;-66
2023/05/11 03:23:32;;;;;;;9.48;2.28;;;;;;;;;;4995068;28;20026;-66
2023/05/11 03:25:59;;;;;;;7.05;1.88;;;;;;;;;;4994744;28;20037;-66
2023/05/11 03:28:26;;;;;;;9.35;2.13;;;;;;;;;;4995122;28;20034;-66
2023/05/11 03:30:53;;;;;;;11.98;2.10;;;;;;;;;;4994543;28;20047;-66
2023/05/11 03:33:19;;;;;;;11.65;2.30;;;;;;;;;;4994456;28;20492;-66
2023/05/11 03:35:47;;;;;;;11.05;2.28;;;;;;;;;;4994968;28;20032;-66
2023/05/11 03:38:14;;;;;;;9.23;1.80;;;;;;;;;;4994908;28;20023;-66
2023/05/11 03:40:41;;;;;;;10.65;2.03;;;;;;;;;;4994809;28;20032;-66
2023/05/11 03:43:10;;;;;;;8.93;2.08;;;;;;;;;;4994624;28;20036;-66
2023/05/11 03:45:37;;;;;;;9.63;1.77;;;;;;;;;;4994498;28;20034;-66
2023/05/11 03:48:04;;;;;;;8.82;2.38;;;;;;;;;;4994373;28;20467;-67
2023/05/11 03:50:31;;;;;;;9.55;1.95;;;;;;;;;;4994777;28;20030;-66
2023/05/11 03:52:58;;;;;;;7.43;1.75;;;;;;;;;;4994405;28;20030;-66
2023/05/11 03:55:25;;;;;;;10.30;1.90;;;;;;;;;;4994202;28;20019;-66
2023/05/11 03:57:52;;;;;;;8.82;2.03;;;;;;;;;;4994589;28;20048;-66
2023/05/11 04:00:18;;;;;;;14.35;2.63;;;;;;;;;;4994258;28;20018;-66
2023/05/11 04:02:45;;;;;;;8.68;2.05;;;;;;;;;;4994124;28;20495;-66
2023/05/11 04:05:11;;;;;;;11.55;2.70;;;;;;;;;;4994356;28;20087;-66
2023/05/11 04:07:38;;;;;;;9.48;2.10;;;;;;;;;;4993855;28;20426;-66
2023/05/11 04:10:05;;;;;;;10.02;1.90;;;;;;;;;;4994090;28;20398;-66
2023/05/11 04:12:32;;;;;;;13.02;1.88;;;;;;;;;;4994166;28;20038;-66
2023/05/11 04:14:58;;;;;;;9.05;1.80;;;;;;;;;;4994114;28;20026;-66
2023/05/11 04:17:24;;;;;;;11.50;2.25;;;;;;;;;;4993987;28;20030;-66
2023/05/11 04:19:51;;;;;;;11.40;2.10;;;;;;;;;;4994131;28;20030;-66
2023/05/11 04:22:17;;;;;;;8.40;1.80;;;;;;;;;;4994033;28;20019;-66
2023/05/11 04:24:43;;;;;;;11.30;1.92;;;;;;;;;;4992668;28;20036;-66
2023/05/11 04:27:10;;;;;;;11.00;2.47;;;;;;;;;;4993709;28;20097;-66
2023/05/11 04:29:36;;;;;;;8.90;2.17;;;;;;;;;;4993665;28;20537;-66
2023/05/11 04:32:03;;;;;;;8.20;2.13;;;;;;;;;;4993703;28;20096;-66
2023/05/11 04:34:29;;;;;;;17.08;2.53;;;;;;;;;;4993473;28;20484;-66
2023/05/11 04:36:56;;;;;;;8.00;1.73;;;;;;;;;;4993991;28;20029;-66
2023/05/11 04:39:22;;;;;;;13.68;2.13;;;;;;;;;;4993378;28;20030;-66
2023/05/11 04:41:48;;;;;;;11.65;2.10;;;;;;;;;;5025376;28;20034;-66
2023/05/11 04:44:14;;;;;;;14.85;2.22;;;;;;;;;;4992618;28;20104;-66
2023/05/11 04:46:41;;;;;;;8.77;2.17;;;;;;;;;;4993274;28;20113;-66
2023/05/11 04:49:07;;;;;;;18.42;2.22;;;;;;;;;;4993297;28;20022;-66
2023/05/11 04:51:33;;;;;;;10.85;2.80;;;;;;;;;;4993226;28;20034;-66
2023/05/11 04:54:00;;;;;;;19.30;2.70;;;;;;;;;;4993460;28;20476;-66
2023/05/11 04:56:26;;;;;;;10.77;2.17;;;;;;;;;;4993254;28;20026;-66
2023/05/11 04:58:52;;;;;;;9.40;2.08;;;;;;;;;;4992934;28;20026;-66
2023/05/11 05:01:19;;;;;;;13.90;2.40;;;;;;;;;;4993324;28;20033;-67
2023/05/11 05:03:48;;;;;;;10.82;2.20;;;;;;;;;;4993371;28;20014;-66
2023/05/11 05:06:14;;;;;;;9.98;2.20;;;;;;;;;;4992986;28;20034;-66
2023/05/11 05:08:41;;;;;;;8.70;1.92;;;;;;;;;;4993163;28;20080;-66
2023/05/11 05:11:08;;;;;;;10.82;2.17;;;;;;;;;;4993411;28;20022;-66
2023/05/11 05:13:35;;;;;;;12.15;2.22;;;;;;;;;;4992877;28;20030;-66
2023/05/11 05:16:01;;;;;;;9.75;1.90;;;;;;;;;;4993224;28;20026;-66
2023/05/11 05:18:27;;;;;;;9.68;1.77;;;;;;;;;;4993073;28;20022;-66
2023/05/11 05:20:54;;;;;;;7.80;1.90;;;;;;;;;;4993045;28;20033;-66
2023/05/11 05:23:20;;;;;;;9.00;1.73;;;;;;;;;;4993532;28;20022;-66
2023/05/11 05:25:47;;;;;;;11.65;2.10;;;;;;;;;;4992874;28;20492;-66
2023/05/11 05:28:13;;;;;;;10.57;1.92;;;;;;;;;;4992575;28;20040;-66
2023/05/11 05:30:39;;;;;;;12.55;1.80;;;;;;;;;;4993138;28;20047;-66
2023/05/11 05:33:06;;;;;;;9.88;1.77;;;;;;;;;;4992839;28;20034;-66
2023/05/11 05:35:32;;;;;;;7.07;1.65;;;;;;;;;;4992692;28;20018;-66
2023/05/11 05:37:58;;;;;;;10.18;2.67;;;;;;;;;;4992691;28;20035;-66
2023/05/11 05:40:25;;;;;;;7.82;1.80;;;;;;;;;;4992675;28;20022;-66
2023/05/11 05:42:51;;;;;;;11.35;1.73;;;;;;;;;;4992514;28;20033;-66
2023/05/11 05:45:17;;;;;;;7.50;1.80;;;;;;;;;;4992692;28;20019;-66
2023/05/11 05:47:44;;;;;;;8.65;1.70;;;;;;;;;;4992551;28;20034;-66
2023/05/11 05:50:10;;;;;;;9.15;1.73;;;;;;;;;;4992315;28;20022;-66
2023/05/11 05:52:37;;;;;;;8.18;1.67;;;;;;;;;;4992594;28;20022;-67
2023/05/11 05:55:03;;;;;;;6.97;1.77;;;;;;;;;;4992918;28;20030;-66
2023/05/11 05:57:30;;;;;;;5.97;2.15;;;;;;;;;;4994854;28;20030;-66
2023/05/11 05:59:56;;;;;;;6.43;1.92;;;;;;;;;;4996920;28;20014;-66
2023/05/11 06:02:22;;;;;;;5.10;1.20;;;;;;;;;;4996283;28;20034;-66
2023/05/11 06:04:49;;;;;;;11.77;1.50;;;;;;;;;;4995814;28;20015;-66
2023/05/11 06:07:15;;;;;;;7.40;1.40;;;;;;;;;;4993443;28;20042;-67
2023/05/11 06:09:41;;;;;;;9.80;1.60;;;;;;;;;;4995833;28;20483;-66
2023/05/11 06:12:08;;;;;;;8.73;1.60;;;;;;;;;;4983491;28;20060;-66
2023/05/11 06:14:35;;;;;;;9.52;1.70;;;;;;;;;;4994406;28;20044;-65
2023/05/11 06:17:01;;;;;;;6.13;1.45;;;;;;;;;;4993370;28;20030;-65
2023/05/11 06:19:28;;;;;;;6.80;1.30;;;;;;;;;;4995689;28;20048;-65
2023/05/11 06:21:54;;;;;;;4.90;1.38;;;;;;;;;;4995790;28;20410;-65
2023/05/11 06:24:21;;;;;;;7.10;1.42;;;;;;;;;;4995696;28;20032;-66
2023/05/11 06:26:47;;;;;;;8.20;1.00;;;;;;;;;;4995366;28;20030;-66
2023/05/11 06:29:13;;;;;;;9.55;1.30;;;;;;;;;;4995858;28;20026;-66
2023/05/11 06:31:40;;;;;;;6.10;1.40;;;;;;;;;;4994524;28;20504;-66
2023/05/11 06:34:08;;;;;;;5.43;1.63;;;;;;;;;;4995490;28;20029;-66
2023/05/11 06:36:34;;;;;;;9.00;1.30;;;;;;;;;;4995895;28;20037;-66
2023/05/11 06:39:00;;;;;;;5.35;1.25;;;;;;;;;;4994959;28;20026;-64
2023/05/11 06:41:27;;;;;;;4.35;1.05;;;;;;;;;;4994608;28;20669;-67
2023/05/11 06:43:53;;;;;;;6.22;1.10;;;;;;;;;;5004996;28;20025;-67
2023/05/11 06:46:20;;;;;;;2.95;1.00;;;;;;;;;;5000081;28;20044;-67
2023/05/11 06:48:47;;;;;;;6.95;1.50;;;;;;;;;;4992056;28;20438;-67
2023/05/11 06:51:13;;;;;;;4.80;1.10;;;;;;;;;;5012500;28;20036;-66
2023/05/11 06:53:39;;;;;;;4.68;1.10;;;;;;;;;;5014628;28;20394;-67
2023/05/11 06:56:06;;;;;;;5.07;1.38;;;;;;;;;;5002908;28;20034;-66
2023/05/11 06:58:32;;;;;;;7.35;1.45;;;;;;;;;;4995193;28;20046;-67
2023/05/11 07:00:59;;;;;;;4.57;1.40;;;;;;;;;;4994939;28;20069;-66
2023/05/11 07:03:25;;;;;;;4.53;1.50;;;;;;;;;;4994872;28;20025;-67
2023/05/11 07:05:52;;;;;;;8.68;2.25;;;;;;;;;;4992859;28;20434;-66
2023/05/11 07:08:18;;;;;;;7.78;1.77;;;;;;;;;;4993253;28;20029;-67
2023/05/11 07:10:44;;;;;;;6.15;1.50;;;;;;;;;;4993991;28;20040;-67
2023/05/11 07:13:11;;;;;;;6.50;1.50;;;;;;;;;;4994489;28;20015;-66
2023/05/11 07:15:37;;;;;;;5.32;1.33;;;;;;;;;;4993890;28;20064;-67
2023/05/11 07:18:04;;;;;;;6.65;1.55;;;;;;;;;;4992976;28;20026;-66
2023/05/11 07:20:30;;;;;;;7.60;1.40;;;;;;;;;;4993847;28;20022;-65
2023/05/11 07:23:00;;;;;;;5.68;1.55;;;;;;;;;;4992591;28;20022;-67
2023/05/11 07:25:27;;;;;;;8.75;1.92;;;;;;;;;;4990284;28;20030;-65
2023/05/11 07:27:53;;;;;;;7.88;1.60;;;;;;;;;;4992071;28;20038;-65
2023/05/11 07:30:20;;;;;;;5.47;1.55;;;;;;;;;;4992694;28;20033;-65
2023/05/11 07:32:46;;;;;;;6.82;1.25;;;;;;;;;;4992729;28;20056;-66
2023/05/11 07:35:14;;;;;;;6.28;1.67;;;;;;;;;;4992995;28;20033;-66
2023/05/11 07:37:40;;;;;;;7.72;1.48;;;;;;;;;;4992842;28;20049;-66
2023/05/11 07:40:07;;;;;;;7.75;1.45;;;;;;;;;;4992854;28;20022;-66
2023/05/11 07:42:33;;;;;;;3.80;1.00;;;;;;;;;;4992692;28;20030;-64
2023/05/11 07:44:59;;;;;;;6.68;1.40;;;;;;;;;;4991381;28;20376;-66
2023/05/11 07:47:26;;;;;;;7.70;1.63;;;;;;;;;;4992566;28;20403;-65
2023/05/11 07:49:52;;;;;;;4.55;1.20;;;;;;;;;;4992383;28;20018;-65
2023/05/11 07:52:18;;;;;;;4.25;0.98;;;;;;;;;;4993547;28;20026;-66
2023/05/11 07:54:45;;;;;;;8.63;1.23;;;;;;;;;;4992436;28;20026;-67
2023/05/11 07:57:12;;;;;;;8.23;1.10;;;;;;;;;;4992612;28;20037;-66
2023/05/11 07:59:42;;;;;;;5.97;1.33;;;;;;;;;;4992545;28;20019;-67
2023/05/11 08:02:09;;;;;;;7.22;1.40;;;;;;;;;;4992388;28;20037;-66
2023/05/11 08:04:35;;;;;;;7.00;0.82;;;;;;;;;;4992709;28;20048;-67
2023/05/11 08:07:02;;;;;;;6.97;1.48;;;;;;;;;;4992123;28;20068;-65
2023/05/11 08:09:28;;;;;;;5.50;1.23;;;;;;;;;;4992191;28;20096;-67
2023/05/11 08:12:00;;;;;;;4.22;1.10;;;;;;;;;;4991879;28;20044;-66
2023/05/11 08:14:26;;;;;;;5.07;1.05;;;;;;;;;;4992579;28;20027;-66
2023/05/11 08:16:52;;;;;;;4.72;1.30;;;;;;;;;;4991786;28;20022;-65
2023/05/11 08:19:19;;;;;;;3.97;0.93;;;;;;;;;;4991084;28;20566;-65
2023/05/11 08:21:45;;;;;;;7.70;1.38;;;;;;;;;;4991417;28;20038;-65
2023/05/11 08:24:12;;;;;;;5.55;1.15;;;;;;;;;;4991591;28;20030;-65
2023/05/11 08:26:38;;;;;;;5.55;1.70;;;;;;;;;;4989800;28;20045;-65
2023/05/11 08:29:05;;;;;;;3.03;1.20;;;;;;;;;;4991329;28;20022;-66
2023/05/11 08:31:31;;;;;;;5.88;1.27;;;;;;;;;;4991610;28;20773;-66
2023/05/11 08:33:57;;;;;;;5.93;1.25;;;;;;;;;;4991816;28;20111;-66
2023/05/11 08:36:23;;;;;;;7.85;1.45;;;;;;;;;;4991279;28;20496;-66
2023/05/11 08:38:50;;;;;;;5.60;1.02;;;;;;;;;;4991949;28;20041;-66
2023/05/11 08:41:16;;;;;;;5.25;1.40;;;;;;;;;;4994813;28;20040;-67
2023/05/11 08:43:42;;;;;;;4.10;1.20;;;;;;;;;;4991508;28;20045;-65
2023/05/11 08:46:11;;;;;;;5.07;1.15;;;;;;;;;;4991408;28;20031;-65
2023/05/11 08:48:37;;;;;;;7.32;1.23;;;;;;;;;;4992856;28;20032;-66
2023/05/11 08:51:04;;;;;;;12.40;1.13;;;;;;;;;;4973837;28;20053;-66
2023/05/11 08:53:31;;;;;;;4.45;1.00;;;;;;;;;;4991872;28;20014;-66
2023/05/11 08:55:59;;;;;;;3.67;0.95;;;;;;;;;;4991875;28;20034;-67
2023/05/11 08:58:26;;;;;;;9.88;1.17;;;;;;;;;;4992042;28;20030;-66
2023/05/11 09:00:53;;;;;;;3.70;1.02;;;;;;;;;;4991589;28;20030;-67
2023/05/11 09:03:20;;;;;;;6.38;1.10;;;;;;;;;;4991280;28;20038;-66
2023/05/11 09:05:46;;;;;;;5.63;1.20;;;;;;;;;;4990471;28;20018;-66
2023/05/11 09:08:13;;;;;;;3.88;1.17;;;;;;;;;;4991442;28;20045;-66
2023/05/11 09:10:41;;;;;;;4.25;1.02;;;;;;;;;;4991208;28;20017;-65
2023/05/11 09:13:07;;;;;;;4.13;1.10;;;;;;;;;;4991440;28;20030;-66
2023/05/11 09:15:34;;;;;;;6.47;1.05;;;;;;;;;;4991494;28;20052;-66
2023/05/11 09:18:01;;;;;;;1.52;0.70;;;;;;;;;;4991059;28;20030;-65
2023/05/11 09:20:28;;;;;;;5.40;1.00;;;;;;;;;;4991064;28;20030;-66
2023/05/11 09:22:55;;;;;;;3.65;0.88;;;;;;;;;;4991276;28;20725;-66
2023/05/11 09:25:22;;;;;;;3.10;1.10;;;;;;;;;;4989831;28;20022;-66
2023/05/11 09:27:49;;;;;;;4.18;1.27;;;;;;;;;;4990603;28;20034;-66
2023/05/11 09:30:16;;;;;;;5.85;1.95;;;;;;;;;;4990329;28;20022;-66
2023/05/11 09:32:50;;;;;;;3.95;0.93;;;;;;;;;;4990037;28;20046;-67
2023/05/11 09:35:20;;;;;;;4.57;0.98;;;;;;;;;;4991018;28;20026;-66
2023/05/11 09:37:59;;;;;;;4.80;1.05;;;;;;;;;;4990411;28;20018;-67
2023/05/11 09:40:26;;;;;;;4.32;1.10;;;;;;;;;;4990338;28;20022;-67
2023/05/11 09:42:52;;;;;;;3.67;1.00;;;;;;;;;;4990933;28;20033;-67
2023/05/11 09:45:39;;;;;;;6.47;0.90;;;;;;;;;;4990582;28;20114;-67
2023/05/11 09:48:07;;;;;;;7.10;1.15;;;;;;;;;;4990428;28;20038;-65
2023/05/11 09:50:36;;;;;;;3.55;0.88;;;;;;;;;;4990453;28;20500;-66
2023/05/11 09:53:02;;;;;;;3.72;1.00;;;;;;;;;;4990597;28;20022;-66
2023/05/11 09:55:29;;;;;;;2.88;1.00;;;;;;;;;;4989951;28;20028;-65
2023/05/11 09:57:56;;;;;;;4.65;0.93;;;;;;;;;;4990599;28;20041;-66
2023/05/11 10:00:26;;;;;;;6.80;1.10;;;;;;;;;;4990987;28;20025;-65
2023/05/11 10:03:06;;;;;;;7.18;1.05;;;;;;;;;;4990000;28;20033;-67
2023/05/11 10:05:33;;;;;;;5.10;1.02;;;;;;;;;;4989692;28;20033;-67
2023/05/11 10:08:01;;;;;;;4.00;1.15;;;;;;;;;;4990611;28;20053;-67
2023/05/11 10:10:28;;;;;;;4.97;1.15;;;;;;;;;;4989963;28;20406;-67
2023/05/11 10:12:55;;;;;;;4.53;1.45;;;;;;;;;;4990498;28;20026;-67
2023/05/11 10:15:27;;;;;;;7.78;1.27;;;;;;;;;;4990156;28;20484;-66
2023/05/11 10:17:54;;;;;;;3.85;1.13;;;;;;;;;;5016262;28;20061;-66
2023/05/11 10:20:21;;;;;;;6.90;1.30;;;;;;;;;;4989999;28;20030;-67
2023/05/11 10:22:47;;;;;;;4.50;1.30;;;;;;;;;;4989987;28;20034;-67
2023/05/11 10:25:14;;;;;;;6.60;1.40;;;;;;;;;;4989897;28;20019;-67
2023/05/11 10:27:41;;;;;;;3.83;1.10;;;;;;;;;;4986741;28;20042;-67
2023/05/11 10:30:09;;;;;;;6.70;0.90;;;;;;;;;;5005661;28;20034;-67
2023/05/11 10:32:36;;;;;;;1.73;0.80;;;;;;;;;;4989602;28;20056;-67
2023/05/11 10:35:04;;;;;;;2.80;0.70;;;;;;;;;;4990386;28;20070;-67
2023/05/11 10:37:31;;;;;;;3.40;0.93;;;;;;;;;;4983753;28;20037;-67
2023/05/11 10:39:58;;;;;;;2.45;0.90;;;;;;;;;;4990390;28;20038;-67
2023/05/11 10:42:32;;;;;;;1.52;0.77;;;;;;;;;;4990925;28;20033;-67
2023/05/11 10:45:17;;;;;;;5.63;1.35;;;;;;;;;;4994156;28;20032;-67
2023/05/11 10:48:02;;;;;;;1.80;0.73;;;;;;;;;;4993660;28;20034;-67
2023/05/11 10:50:47;;;;;;;3.58;0.80;;;;;;;;;;4991328;28;20032;-67
2023/05/11 10:53:27;;;;;;;5.47;0.80;;;;;;;;;;4994054;28;20034;-67
2023/05/11 10:55:53;;;;;;;2.92;0.90;;;;;;;;;;4993469;28;20023;-67
2023/05/11 10:58:35;;;;;;;1.63;0.77;;;;;;;;;;4993479;28;20073;-67
2023/05/11 11:01:20;;;;;;;4.20;0.90;;;;;;;;;;4991905;28;20080;-67
2023/05/11 11:04:01;;;;;;;3.22;0.77;;;;;;;;;;4993495;28;20030;-67
2023/05/11 11:06:28;;;;;;;3.92;0.88;;;;;;;;;;4993979;28;20090;-67
2023/05/11 11:08:56;;;;;;;1.98;1.10;;;;;;;;;;4993599;28;20033;-67
2023/05/11 11:11:32;;;;;;;1.88;0.70;;;;;;;;;;4993258;28;20037;-67
2023/05/11 11:14:04;;;;;;;2.53;1.00;;;;;;;;;;4993324;28;20035;-67
2023/05/11 11:16:31;;;;;;;3.58;0.85;;;;;;;;;;4993428;28;20536;-68
2023/05/11 11:19:23;;;;;;;2.45;0.90;;;;;;;;;;4993635;28;20040;-68
2023/05/11 11:21:50;;;;;;;7.82;1.27;;;;;;;;;;5006271;28;20046;-68
2023/05/11 11:24:35;;;;;;;3.15;1.02;;;;;;;;;;4990858;28;20088;-68
2023/05/11 11:27:01;;;;;;;4.57;1.00;;;;;;;;;;4990230;28;20569;-68
2023/05/11 11:29:28;;;;;;;2.72;1.00;;;;;;;;;;4989889;28;20464;-68
2023/05/11 11:31:54;;;;;;;3.13;0.65;;;;;;;;;;4990081;28;20068;-67
2023/05/11 11:34:26;;;;;;;2.30;0.77;;;;;;;;;;4990734;28;20407;-68
2023/05/11 11:37:02;;;;;;;3.63;1.20;;;;;;;;;;4990293;28;20027;-67
2023/05/11 11:39:44;;;;;;;1.83;0.75;;;;;;;;;;4990037;28;20049;-68
2023/05/11 11:42:10;;;;;;;1.65;0.80;;;;;;;;;;4986733;28;20032;-67
2023/05/11 11:44:37;;;;;;;2.75;1.00;;;;;;;;;;4992079;28;20022;-67
2023/05/11 11:47:10;;;;;;;5.30;0.80;;;;;;;;;;4990243;28;20031;-68
2023/05/11 11:49:37;;;;;;;5.75;1.02;;;;;;;;;;4988818;28;20540;-68
2023/05/11 11:52:05;;;;;;;2.25;0.90;;;;;;;;;;4972904;28;20049;-69
2023/05/11 11:54:38;;;;;;;1.70;0.75;;;;;;;;;;4987463;28;20037;-68
2023/05/11 11:57:05;;;;;;;4.35;0.70;;;;;;;;;;5008955;28;20152;-68
2023/05/11 11:59:46;;;;;;;4.00;1.00;;;;;;;;;;4984633;28;20522;-67
2023/05/11 12:02:15;;;;;;;1.85;0.93;;;;;;;;;;4991950;28;20026;-64
2023/05/11 12:04:50;;;;;;;2.10;0.70;;;;;;;;;;4987223;28;20487;-70
2023/05/11 12:07:18;;;;;;;1.65;0.93;;;;;;;;;;4991943;28;20034;-69
2023/05/11 12:09:45;;;;;;;2.17;0.73;;;;;;;;;;4992203;28;20387;-69
2023/05/11 12:12:12;;;;;;;6.00;0.80;;;;;;;;;;4992103;28;20030;-70
2023/05/11 12:14:40;;;;;;;3.55;0.90;;;;;;;;;;4992338;28;20042;-71
2023/05/11 12:17:12;;;;;;;1.58;0.65;;;;;;;;;;4992467;28;20030;-69
2023/05/11 12:19:38;;;;;;;2.47;0.82;;;;;;;;;;4989890;28;20027;-69
2023/05/11 12:22:04;;;;;;;1.08;0.68;;;;;;;;;;4990451;28;20038;-68
2023/05/11 12:24:31;;;;;;;2.45;1.10;;;;;;;;;;4991680;28;20022;-68
2023/05/11 12:26:57;;;;;;;2.10;0.73;;;;;;;;;;4991833;28;20048;-68
2023/05/11 12:29:24;;;;;;;2.70;0.80;;;;;;;;;;4991422;28;20030;-68
2023/05/11 12:31:51;;;;;;;2.30;0.80;;;;;;;;;;4991686;28;20050;-68
2023/05/11 12:34:18;;;;;;;1.58;0.77;;;;;;;;;;4991476;28;20032;-69
2023/05/11 12:36:45;;;;;;;2.10;1.00;;;;;;;;;;5006777;28;20041;-67
2023/05/11 12:39:18;;;;;;;3.97;1.05;;;;;;;;;;4990173;28;20467;-67
2023/05/11 12:41:44;;;;;;;7.13;1.42;;;;;;;;;;4988821;28;20037;-71
2023/05/11 12:44:11;;;;;;;2.67;1.20;;;;;;;;;;4990223;28;20034;-71
2023/05/11 12:46:37;;;;;;;1.77;0.63;;;;;;;;;;4977547;28;20092;-71
2023/05/11 12:49:04;;;;;;;2.40;1.02;;;;;;;;;;4984792;28;20023;-71
2023/05/11 12:51:46;;;;;;;1.52;0.65;;;;;;;;;;4986488;28;20384;-71
2023/05/11 12:54:24;;;;;;;11.65;1.08;;;;;;;;;;4990721;28;20395;-71
2023/05/11 12:56:50;;;;;;;2.35;1.02;;;;;;;;;;4991216;28;20352;-71
2023/05/11 12:59:23;;;;;;;2.35;1.00;;;;;;;;;;4984133;28;20033;-71
2023/05/11 13:01:49;;;;;;;1.05;0.70;;;;;;;;;;4980538;28;20060;-71
2023/05/11 13:04:16;;;;;;;1.95;0.80;;;;;;;;;;4986230;28;20476;-69
2023/05/11 13:06:44;;;;;;;1.15;0.63;;;;;;;;;;4990914;28;20026;-71
2023/05/11 13:09:11;;;;;;;4.55;0.85;;;;;;;;;;4991652;28;20030;-70
2023/05/11 13:11:37;;;;;;;2.38;0.80;;;;;;;;;;4991033;28;20022;-69
2023/05/11 13:14:15;;;;;;;3.58;1.02;;;;;;;;;;4990769;28;20496;-68
2023/05/11 13:16:52;;;;;;;0.90;0.55;;;;;;;;;;4980160;28;20037;-68
2023/05/11 13:19:26;;;;;;;3.60;0.75;;;;;;;;;;4990869;28;20027;-69
2023/05/11 13:21:53;;;;;;;3.65;0.70;;;;;;;;;;4990830;28;20034;-68
2023/05/11 13:24:20;;;;;;;4.97;0.88;;;;;;;;;;4990590;28;20041;-68
2023/05/11 13:26:46;;;;;;;2.53;0.80;;;;;;;;;;4990108;28;20050;-67
2023/05/11 13:29:12;;;;;;;1.55;0.60;;;;;;;;;;4991181;28;20037;-67
2023/05/11 13:31:45;;;;;;;3.13;1.10;;;;;;;;;;4990655;28;20054;-68
2023/05/11 13:34:12;;;;;;;2.80;0.80;;;;;;;;;;4990284;28;20037;-68
2023/05/11 13:36:39;;;;;;;1.30;0.63;;;;;;;;;;4990559;28;20034;-70
2023/05/11 13:39:05;;;;;;;2.47;0.73;;;;;;;;;;5011183;28;20518;-69
2023/05/11 13:41:32;;;;;;;3.03;0.70;;;;;;;;;;4971773;28;20031;-66
2023/05/11 13:43:58;;;;;;;0.80;0.73;;;;;;;;;;4981112;28;20403;-68
2023/05/11 13:46:25;;;;;;;4.30;0.90;;;;;;;;;;4990495;28;20032;-68
2023/05/11 13:48:53;;;;;;;1.48;0.70;;;;;;;;;;4990935;28;20054;-68
2023/05/11 13:51:20;;;;;;;3.28;0.50;;;;;;;;;;4990605;28;20073;-68
2023/05/11 13:53:46;;;;;;;1.45;0.47;;;;;;;;;;4990612;28;20145;-68
2023/05/11 13:56:13;;;;;;;1.48;0.40;;;;;;;;;;4990384;28;20495;-65
2023/05/11 13:58:39;;;;;;;2.35;0.80;;;;;;;;;;4990515;28;20045;-68
2023/05/11 14:01:06;;;;;;;3.88;0.65;;;;;;;;;;4990739;28;20026;-67
2023/05/11 14:03:32;;;;;;;0.98;0.60;;;;;;;;;;4990388;28;20034;-66
2023/05/11 14:05:59;;;;;;;1.30;0.60;;;;;;;;;;4990671;28;20034;-67
2023/05/11 14:08:25;;;;;;;1.83;0.60;;;;;;;;;;4990745;28;20407;-67
2023/05/11 14:10:51;;;;;;;1.70;0.52;;;;;;;;;;4990261;28;20034;-67
2023/05/11 14:13:18;;;;;;;1.20;0.43;;;;;;;;;;4990588;28;20026;-67
2023/05/11 14:15:44;;;;;;;1.33;0.60;;;;;;;;;;4989365;28;20033;-68
2023/05/11 14:18:10;;;;;;;1.02;0.50;;;;;;;;;;4992634;28;20023;-67
2023/05/11 14:20:37;;;;;;;0.75;0.60;;;;;;;;;;4994149;28;20072;-66
2023/05/11 14:23:04;;;;;;;1.80;0.60;;;;;;;;;;4994288;28;20026;-66
2023/05/11 14:25:30;;;;;;;1.13;0.80;;;;;;;;;;4993937;28;20023;-67
2023/05/11 14:27:57;;;;;;;2.22;0.75;;;;;;;;;;4994229;28;20098;-66
2023/05/11 14:30:24;;;;;;;2.83;0.55;;;;;;;;;;4993419;28;20023;-66
2023/05/11 14:32:51;;;;;;;4.45;0.70;;;;;;;;;;4992919;28;20042;-66
2023/05/11 14:35:18;;;;;;;4.55;0.77;;;;;;;;;;4994011;28;20483;-67
2023/05/11 14:37:44;;;;;;;0.50;0.30;;;;;;;;;;4991245;28;20104;-65
2023/05/11 14:40:11;;;;;;;1.55;0.60;;;;;;;;;;4993215;28;20034;-67
2023/05/11 14:42:37;;;;;;;1.80;0.70;;;;;;;;;;4993806;28;20022;-66
2023/05/11 14:45:05;;;;;;;6.05;0.80;;;;;;;;;;4993546;28;20391;-66